PWSweather.com
Personal Weather Stations
Station Observations
KWABLAIN13
Ptl Weather, Blaine, WA

Ptl WeatherBlaine, WA

Lat: 48.997393, Lon: -122.748614

Elevation: 57

Station Type: Davis Advantage Pro 2

http://www.ptlnet.net

High Low Average
Temperature 52.9°F11.6°C 42.0°F5.6°C 46.3°F7.9°C
Dew Point 47.2°F8.4°C 40.9°F4.9°C 43.3°F6.3°C
Winds 8.0 mph 12.9 kmh Calm Calm 2.0 mph ESE3.2 kmh ESE
Wind Gusts 11.0 mph17.7 kmh -- 5.0 mph8.0 kmh
Humidity 96% 73% 89%
Pressure 30.04 in1017.3 mb 29.99 in1015.6 mb -
Precipitation 0.00 in0.0 mm - -
Hour Temp Dew Point Humidity Winds Wind Gusts Pressure Precip Precip Rate Daily Precip Total
12:05 AM 39.8°F4.3°C 38.2°F3.4°C 94% Calm Calm -- 30.05 in1017.6 mb 0.00 in0.0 mm 0.00 in0.0 mm 0.00 in0.0 mm
12:09 AM 39.9°F4.4°C 38.6°F3.7°C 95% Calm Calm -- 30.05 in1017.6 mb 0.00 in0.0 mm 0.00 in0.0 mm 0.00 in0.0 mm
12:25 AM 40.1°F4.5°C 38.8°F3.8°C 95% Calm Calm 1.0 mph1.6 kmh 30.05 in1017.6 mb 0.00 in0.0 mm 0.00 in0.0 mm 0.00 in0.0 mm
12:30 AM 40.2°F4.6°C 38.9°F3.8°C 95% 2.0 mph NE3.2 kmh NE 3.0 mph4.8 kmh 30.05 in1017.6 mb 0.00 in0.0 mm 0.00 in0.0 mm 0.00 in0.0 mm
12:45 AM 40.5°F4.7°C 39.2°F4.0°C 95% 1.0 mph E1.6 kmh E 5.0 mph8.0 kmh 30.05 in1017.6 mb 0.00 in0.0 mm 0.00 in0.0 mm 0.00 in0.0 mm
12:50 AM 40.9°F4.9°C 39.9°F4.4°C 96% 2.0 mph SE3.2 kmh SE 2.0 mph3.2 kmh 30.05 in1017.6 mb 0.00 in0.0 mm 0.00 in0.0 mm 0.00 in0.0 mm
01:05 AM 42.0°F5.6°C 40.9°F4.9°C 96% 1.0 mph SE1.6 kmh SE 5.0 mph8.0 kmh 30.04 in1017.3 mb 0.00 in0.0 mm 0.00 in0.0 mm 0.00 in0.0 mm
01:10 AM 42.2°F5.7°C 41.1°F5.1°C 96% 2.0 mph SE3.2 kmh SE 3.0 mph4.8 kmh 30.04 in1017.3 mb 0.00 in0.0 mm 0.00 in0.0 mm 0.00 in0.0 mm
01:25 AM 42.6°F5.9°C 41.3°F5.2°C 95% 3.0 mph SE4.8 kmh SE 5.0 mph8.0 kmh 30.04 in1017.3 mb 0.00 in0.0 mm 0.00 in0.0 mm 0.00 in0.0 mm
01:30 AM 42.7°F5.9°C 41.4°F5.2°C 95% 3.0 mph SE4.8 kmh SE 3.0 mph4.8 kmh 30.04 in1017.3 mb 0.00 in0.0 mm 0.00 in0.0 mm 0.00 in0.0 mm
01:44 AM 42.8°F6.0°C 41.2°F5.1°C 94% 3.0 mph ESE4.8 kmh ESE 5.0 mph8.0 kmh 30.04 in1017.3 mb 0.00 in0.0 mm 0.00 in0.0 mm 0.00 in0.0 mm
01:49 AM 42.8°F6.0°C 41.2°F5.1°C 94% 3.0 mph SE4.8 kmh SE 5.0 mph8.0 kmh 30.04 in1017.3 mb 0.00 in0.0 mm 0.00 in0.0 mm 0.00 in0.0 mm
02:05 AM 42.8°F6.0°C 41.2°F5.1°C 94% 3.0 mph SE4.8 kmh SE 5.0 mph8.0 kmh 30.04 in1017.3 mb 0.00 in0.0 mm 0.00 in0.0 mm 0.00 in0.0 mm
02:10 AM 42.9°F6.1°C 41.3°F5.2°C 94% 3.0 mph SE4.8 kmh SE 6.0 mph9.7 kmh 30.04 in1017.3 mb 0.00 in0.0 mm 0.00 in0.0 mm 0.00 in0.0 mm
02:24 AM 43.0°F6.1°C 41.4°F5.2°C 94% 1.0 mph SE1.6 kmh SE 5.0 mph8.0 kmh 30.04 in1017.3 mb 0.00 in0.0 mm 0.00 in0.0 mm 0.00 in0.0 mm
02:30 AM 43.0°F6.1°C 41.4°F5.2°C 94% 5.0 mph SE8.0 kmh SE 6.0 mph9.7 kmh 30.04 in1017.3 mb 0.00 in0.0 mm 0.00 in0.0 mm 0.00 in0.0 mm
02:45 AM 43.1°F6.2°C 41.2°F5.1°C 93% 3.0 mph ESE4.8 kmh ESE 7.0 mph11.3 kmh 30.04 in1017.3 mb 0.00 in0.0 mm 0.00 in0.0 mm 0.00 in0.0 mm
02:50 AM 43.2°F6.2°C 41.3°F5.2°C 93% 3.0 mph ESE4.8 kmh ESE 7.0 mph11.3 kmh 30.04 in1017.3 mb 0.00 in0.0 mm 0.00 in0.0 mm 0.00 in0.0 mm
03:05 AM 43.3°F6.3°C 41.4°F5.2°C 93% 3.0 mph ESE4.8 kmh ESE 5.0 mph8.0 kmh 30.04 in1017.3 mb 0.00 in0.0 mm 0.00 in0.0 mm 0.00 in0.0 mm
03:09 AM 43.4°F6.3°C 41.5°F5.3°C 93% 5.0 mph ESE8.0 kmh ESE 6.0 mph9.7 kmh 30.03 in1016.9 mb 0.00 in0.0 mm 0.00 in0.0 mm 0.00 in0.0 mm
03:25 AM 43.5°F6.4°C 41.6°F5.3°C 93% 3.0 mph SE4.8 kmh SE 7.0 mph11.3 kmh 30.03 in1016.9 mb 0.00 in0.0 mm 0.00 in0.0 mm 0.00 in0.0 mm
03:30 AM 43.6°F6.4°C 41.4°F5.2°C 92% 5.0 mph ESE8.0 kmh ESE 8.0 mph12.9 kmh 30.03 in1016.9 mb 0.00 in0.0 mm 0.00 in0.0 mm 0.00 in0.0 mm
03:45 AM 43.7°F6.5°C 41.5°F5.3°C 92% 5.0 mph SE8.0 kmh SE 7.0 mph11.3 kmh 30.03 in1016.9 mb 0.00 in0.0 mm 0.00 in0.0 mm 0.00 in0.0 mm
03:50 AM 43.7°F6.5°C 41.5°F5.3°C 92% 7.0 mph ESE11.3 kmh ESE 7.0 mph11.3 kmh 30.03 in1016.9 mb 0.00 in0.0 mm 0.00 in0.0 mm 0.00 in0.0 mm
04:04 AM 43.6°F6.4°C 41.4°F5.2°C 92% 5.0 mph SE8.0 kmh SE 7.0 mph11.3 kmh 30.03 in1016.9 mb 0.00 in0.0 mm 0.00 in0.0 mm 0.00 in0.0 mm
04:09 AM 43.6°F6.4°C 41.2°F5.1°C 91% 3.0 mph SE4.8 kmh SE 7.0 mph11.3 kmh 30.03 in1016.9 mb 0.00 in0.0 mm 0.00 in0.0 mm 0.00 in0.0 mm
04:25 AM 43.6°F6.4°C 41.4°F5.2°C 92% 1.0 mph ESE1.6 kmh ESE 6.0 mph9.7 kmh 30.03 in1016.9 mb 0.00 in0.0 mm 0.00 in0.0 mm 0.00 in0.0 mm
04:30 AM 43.6°F6.4°C 41.2°F5.1°C 91% 3.0 mph SE4.8 kmh SE 6.0 mph9.7 kmh 30.03 in1016.9 mb 0.00 in0.0 mm 0.00 in0.0 mm 0.00 in0.0 mm
04:44 AM 43.6°F6.4°C 41.2°F5.1°C 91% 1.0 mph ESE1.6 kmh ESE 6.0 mph9.7 kmh 30.03 in1016.9 mb 0.00 in0.0 mm 0.00 in0.0 mm 0.00 in0.0 mm
04:50 AM 43.7°F6.5°C 41.3°F5.2°C 91% 2.0 mph ESE3.2 kmh ESE 6.0 mph9.7 kmh 30.03 in1016.9 mb 0.00 in0.0 mm 0.00 in0.0 mm 0.00 in0.0 mm
05:04 AM 43.6°F6.4°C 41.2°F5.1°C 91% 1.0 mph SE1.6 kmh SE 5.0 mph8.0 kmh 30.03 in1016.9 mb 0.00 in0.0 mm 0.00 in0.0 mm 0.00 in0.0 mm
05:10 AM 43.6°F6.4°C 41.2°F5.1°C 91% 2.0 mph SE3.2 kmh SE 3.0 mph4.8 kmh 30.03 in1016.9 mb 0.00 in0.0 mm 0.00 in0.0 mm 0.00 in0.0 mm
05:25 AM 43.6°F6.4°C 41.2°F5.1°C 91% 4.0 mph ESE6.4 kmh ESE 5.0 mph8.0 kmh 30.03 in1016.9 mb 0.00 in0.0 mm 0.00 in0.0 mm 0.00 in0.0 mm
05:29 AM 43.7°F6.5°C 41.3°F5.2°C 91% 2.0 mph E3.2 kmh E 5.0 mph8.0 kmh 30.03 in1016.9 mb 0.00 in0.0 mm 0.00 in0.0 mm 0.00 in0.0 mm
05:45 AM 43.9°F6.6°C 41.5°F5.3°C 91% 1.0 mph E1.6 kmh E 3.0 mph4.8 kmh 30.03 in1016.9 mb 0.00 in0.0 mm 0.00 in0.0 mm 0.00 in0.0 mm
05:50 AM 44.0°F6.7°C 41.6°F5.3°C 91% 1.0 mph E1.6 kmh E 3.0 mph4.8 kmh 30.03 in1016.9 mb 0.00 in0.0 mm 0.00 in0.0 mm 0.00 in0.0 mm
06:04 AM 44.3°F6.8°C 41.8°F5.4°C 91% 3.0 mph SE4.8 kmh SE 6.0 mph9.7 kmh 30.03 in1016.9 mb 0.00 in0.0 mm 0.00 in0.0 mm 0.00 in0.0 mm
06:10 AM 44.4°F6.9°C 41.9°F5.5°C 91% 3.0 mph SE4.8 kmh SE 3.0 mph4.8 kmh 30.03 in1016.9 mb 0.00 in0.0 mm 0.00 in0.0 mm 0.00 in0.0 mm
06:25 AM 44.7°F7.1°C 42.0°F5.6°C 90% 3.0 mph ESE4.8 kmh ESE 7.0 mph11.3 kmh 30.03 in1016.9 mb 0.00 in0.0 mm 0.00 in0.0 mm 0.00 in0.0 mm
06:29 AM 44.8°F7.1°C 42.1°F5.6°C 90% 3.0 mph ESE4.8 kmh ESE 7.0 mph11.3 kmh 30.03 in1016.9 mb 0.00 in0.0 mm 0.00 in0.0 mm 0.00 in0.0 mm
06:44 AM 44.8°F7.1°C 42.1°F5.6°C 90% 4.0 mph ESE6.4 kmh ESE 6.0 mph9.7 kmh 30.03 in1016.9 mb 0.00 in0.0 mm 0.00 in0.0 mm 0.00 in0.0 mm
06:50 AM 44.8°F7.1°C 42.1°F5.6°C 90% 2.0 mph SE3.2 kmh SE 7.0 mph11.3 kmh 30.03 in1016.9 mb 0.00 in0.0 mm 0.00 in0.0 mm 0.00 in0.0 mm
07:05 AM 44.9°F7.2°C 42.2°F5.7°C 90% 4.0 mph SE6.4 kmh SE 5.0 mph8.0 kmh 30.03 in1016.9 mb 0.00 in0.0 mm 0.00 in0.0 mm 0.00 in0.0 mm
07:10 AM 44.9°F7.2°C 42.2°F5.7°C 90% 3.0 mph SE4.8 kmh SE 5.0 mph8.0 kmh 30.03 in1016.9 mb 0.00 in0.0 mm 0.00 in0.0 mm 0.00 in0.0 mm
07:24 AM 44.8°F7.1°C 41.8°F5.4°C 89% 3.0 mph SE4.8 kmh SE 6.0 mph9.7 kmh 30.03 in1016.9 mb 0.00 in0.0 mm 0.00 in0.0 mm 0.00 in0.0 mm
07:30 AM 44.8°F7.1°C 41.8°F5.4°C 89% 2.0 mph SE3.2 kmh SE 6.0 mph9.7 kmh 30.03 in1016.9 mb 0.00 in0.0 mm 0.00 in0.0 mm 0.00 in0.0 mm
07:45 AM 44.8°F7.1°C 41.8°F5.4°C 89% 3.0 mph SE4.8 kmh SE 5.0 mph8.0 kmh 30.03 in1016.9 mb 0.00 in0.0 mm 0.00 in0.0 mm 0.00 in0.0 mm
07:50 AM 44.8°F7.1°C 41.8°F5.4°C 89% 3.0 mph ESE4.8 kmh ESE 6.0 mph9.7 kmh 30.03 in1016.9 mb 0.00 in0.0 mm 0.00 in0.0 mm 0.00 in0.0 mm
08:05 AM 44.8°F7.1°C 41.8°F5.4°C 89% 3.0 mph E4.8 kmh E 5.0 mph8.0 kmh 30.03 in1016.9 mb 0.00 in0.0 mm 0.00 in0.0 mm 0.00 in0.0 mm
08:10 AM 44.9°F7.2°C 41.9°F5.5°C 89% 2.0 mph SE3.2 kmh SE 5.0 mph8.0 kmh 30.03 in1016.9 mb 0.00 in0.0 mm 0.00 in0.0 mm 0.00 in0.0 mm
08:25 AM 44.9°F7.2°C 41.6°F5.3°C 88% 1.0 mph ESE1.6 kmh ESE 5.0 mph8.0 kmh 30.03 in1016.9 mb 0.00 in0.0 mm 0.00 in0.0 mm 0.00 in0.0 mm
08:29 AM 45.0°F7.2°C 41.7°F5.4°C 88% 5.0 mph ESE8.0 kmh ESE 5.0 mph8.0 kmh 30.03 in1016.9 mb 0.00 in0.0 mm 0.00 in0.0 mm 0.00 in0.0 mm
08:45 AM 45.4°F7.4°C 41.8°F5.4°C 87% 5.0 mph ESE8.0 kmh ESE 8.0 mph12.9 kmh 30.03 in1016.9 mb 0.00 in0.0 mm 0.00 in0.0 mm 0.00 in0.0 mm
08:49 AM 45.5°F7.5°C 41.9°F5.5°C 87% 5.0 mph SE8.0 kmh SE 8.0 mph12.9 kmh 30.03 in1016.9 mb 0.00 in0.0 mm 0.00 in0.0 mm 0.00 in0.0 mm
09:05 AM 45.7°F7.6°C 42.1°F5.6°C 87% 8.0 mph SE12.9 kmh SE 8.0 mph12.9 kmh 30.03 in1016.9 mb 0.00 in0.0 mm 0.00 in0.0 mm 0.00 in0.0 mm
09:10 AM 45.8°F7.7°C 42.2°F5.7°C 87% 5.0 mph ESE8.0 kmh ESE 9.0 mph14.5 kmh 30.03 in1016.9 mb 0.00 in0.0 mm 0.00 in0.0 mm 0.00 in0.0 mm
09:25 AM 46.0°F7.8°C 42.4°F5.8°C 87% 3.0 mph ESE4.8 kmh ESE 7.0 mph11.3 kmh 30.03 in1016.9 mb 0.00 in0.0 mm 0.00 in0.0 mm 0.00 in0.0 mm
09:30 AM 46.1°F7.8°C 42.5°F5.8°C 87% 4.0 mph SE6.4 kmh SE 7.0 mph11.3 kmh 30.03 in1016.9 mb 0.00 in0.0 mm 0.00 in0.0 mm 0.00 in0.0 mm
09:45 AM 46.3°F7.9°C 42.7°F5.9°C 87% 5.0 mph SE8.0 kmh SE 7.0 mph11.3 kmh 30.03 in1016.9 mb 0.00 in0.0 mm 0.00 in0.0 mm 0.00 in0.0 mm
09:49 AM 46.5°F8.1°C 43.1°F6.2°C 88% 5.0 mph ESE8.0 kmh ESE 5.0 mph8.0 kmh 30.03 in1016.9 mb 0.00 in0.0 mm 0.00 in0.0 mm 0.00 in0.0 mm
10:05 AM 46.7°F8.2°C 43.3°F6.3°C 88% 2.0 mph SSE3.2 kmh SSE 5.0 mph8.0 kmh 30.03 in1016.9 mb 0.00 in0.0 mm 0.00 in0.0 mm 0.00 in0.0 mm
10:10 AM 46.7°F8.2°C 43.3°F6.3°C 88% 5.0 mph SE8.0 kmh SE 5.0 mph8.0 kmh 30.03 in1016.9 mb 0.00 in0.0 mm 0.00 in0.0 mm 0.00 in0.0 mm
10:25 AM 46.8°F8.2°C 43.1°F6.2°C 87% 4.0 mph SE6.4 kmh SE 9.0 mph14.5 kmh 30.03 in1016.9 mb 0.00 in0.0 mm 0.00 in0.0 mm 0.00 in0.0 mm
10:29 AM 46.8°F8.2°C 43.4°F6.3°C 88% 2.0 mph SE3.2 kmh SE 9.0 mph14.5 kmh 30.03 in1016.9 mb 0.00 in0.0 mm 0.00 in0.0 mm 0.00 in0.0 mm
10:45 AM 47.2°F8.4°C 43.8°F6.6°C 88% 5.0 mph ESE8.0 kmh ESE 7.0 mph11.3 kmh 30.03 in1016.9 mb 0.00 in0.0 mm 0.00 in0.0 mm 0.00 in0.0 mm
10:50 AM 47.2°F8.4°C 43.8°F6.6°C 88% 1.0 mph SE1.6 kmh SE 7.0 mph11.3 kmh 30.03 in1016.9 mb 0.00 in0.0 mm 0.00 in0.0 mm 0.00 in0.0 mm
11:05 AM 47.4°F8.6°C 44.3°F6.8°C 89% 3.0 mph SE4.8 kmh SE 5.0 mph8.0 kmh 30.03 in1016.9 mb 0.00 in0.0 mm 0.00 in0.0 mm 0.00 in0.0 mm
11:10 AM 47.4°F8.6°C 44.3°F6.8°C 89% 5.0 mph SE8.0 kmh SE 6.0 mph9.7 kmh 30.03 in1016.9 mb 0.00 in0.0 mm 0.00 in0.0 mm 0.00 in0.0 mm
11:25 AM 47.4°F8.6°C 44.6°F7.0°C 90% 4.0 mph SE6.4 kmh SE 5.0 mph8.0 kmh 30.03 in1016.9 mb 0.00 in0.0 mm 0.00 in0.0 mm 0.00 in0.0 mm
11:30 AM 47.4°F8.6°C 44.6°F7.0°C 90% 2.0 mph SE3.2 kmh SE 6.0 mph9.7 kmh 30.03 in1016.9 mb 0.00 in0.0 mm 0.00 in0.0 mm 0.00 in0.0 mm
11:45 AM 47.5°F8.6°C 45.0°F7.2°C 91% 4.0 mph ESE6.4 kmh ESE 6.0 mph9.7 kmh 30.03 in1016.9 mb 0.00 in0.0 mm 0.00 in0.0 mm 0.00 in0.0 mm
11:50 AM 47.6°F8.7°C 44.8°F7.1°C 90% 5.0 mph SE8.0 kmh SE 6.0 mph9.7 kmh 30.03 in1016.9 mb 0.00 in0.0 mm 0.00 in0.0 mm 0.00 in0.0 mm
12:05 PM 47.9°F8.8°C 45.4°F7.4°C 91% 4.0 mph SE6.4 kmh SE 6.0 mph9.7 kmh 30.03 in1016.9 mb 0.00 in0.0 mm 0.00 in0.0 mm 0.00 in0.0 mm
12:10 PM 48.1°F8.9°C 45.6°F7.6°C 91% 2.0 mph SE3.2 kmh SE 7.0 mph11.3 kmh 30.03 in1016.9 mb 0.00 in0.0 mm 0.00 in0.0 mm 0.00 in0.0 mm
12:25 PM 48.4°F9.1°C 45.9°F7.7°C 91% 3.0 mph SE4.8 kmh SE 6.0 mph9.7 kmh 30.03 in1016.9 mb 0.00 in0.0 mm 0.00 in0.0 mm 0.00 in0.0 mm
12:30 PM 48.5°F9.2°C 46.0°F7.8°C 91% 4.0 mph E6.4 kmh E 6.0 mph9.7 kmh 30.03 in1016.9 mb 0.00 in0.0 mm 0.00 in0.0 mm 0.00 in0.0 mm
12:45 PM 48.6°F9.2°C 45.8°F7.7°C 90% 4.0 mph SE6.4 kmh SE 7.0 mph11.3 kmh 30.03 in1016.9 mb 0.00 in0.0 mm 0.00 in0.0 mm 0.00 in0.0 mm
12:50 PM 48.6°F9.2°C 45.8°F7.7°C 90% 3.0 mph SE4.8 kmh SE 4.0 mph6.4 kmh 30.03 in1016.9 mb 0.00 in0.0 mm 0.00 in0.0 mm 0.00 in0.0 mm
01:05 PM 48.8°F9.3°C 46.0°F7.8°C 90% 2.0 mph E3.2 kmh E 5.0 mph8.0 kmh 30.02 in1016.6 mb 0.00 in0.0 mm 0.00 in0.0 mm 0.00 in0.0 mm
01:10 PM 48.9°F9.4°C 46.1°F7.8°C 90% 3.0 mph SE4.8 kmh SE 5.0 mph8.0 kmh 30.02 in1016.6 mb 0.00 in0.0 mm 0.00 in0.0 mm 0.00 in0.0 mm
01:24 PM 49.5°F9.7°C 46.4°F8.0°C 89% 1.0 mph SSE1.6 kmh SSE 7.0 mph11.3 kmh 30.02 in1016.6 mb 0.00 in0.0 mm 0.00 in0.0 mm 0.00 in0.0 mm
01:30 PM 49.7°F9.8°C 46.6°F8.1°C 89% 1.0 mph SE1.6 kmh SE 7.0 mph11.3 kmh 30.02 in1016.6 mb 0.00 in0.0 mm 0.00 in0.0 mm 0.00 in0.0 mm
01:45 PM 50.5°F10.3°C 46.8°F8.2°C 87% 3.0 mph SE4.8 kmh SE 4.0 mph6.4 kmh 30.01 in1016.3 mb 0.00 in0.0 mm 0.00 in0.0 mm 0.00 in0.0 mm
01:50 PM 51.0°F10.6°C 46.7°F8.2°C 85% 4.0 mph SE6.4 kmh SE 5.0 mph8.0 kmh 30.01 in1016.3 mb 0.00 in0.0 mm 0.00 in0.0 mm 0.00 in0.0 mm
02:04 PM 52.5°F11.4°C 47.2°F8.4°C 82% 2.0 mph SE3.2 kmh SE 8.0 mph12.9 kmh 30.01 in1016.3 mb 0.00 in0.0 mm 0.00 in0.0 mm 0.00 in0.0 mm
02:10 PM 52.7°F11.5°C 46.7°F8.2°C 80% 3.0 mph S4.8 kmh S 9.0 mph14.5 kmh 30.01 in1016.3 mb 0.00 in0.0 mm 0.00 in0.0 mm 0.00 in0.0 mm
02:24 PM 52.5°F11.4°C 45.5°F7.5°C 77% 5.0 mph ESE8.0 kmh ESE 10.0 mph16.1 kmh 30.01 in1016.3 mb 0.00 in0.0 mm 0.00 in0.0 mm 0.00 in0.0 mm
02:29 PM 52.3°F11.3°C 45.3°F7.4°C 77% 3.0 mph SE4.8 kmh SE 10.0 mph16.1 kmh 30.01 in1016.3 mb 0.00 in0.0 mm 0.00 in0.0 mm 0.00 in0.0 mm
02:45 PM 51.7°F10.9°C 45.1°F7.3°C 78% 4.0 mph SE6.4 kmh SE 11.0 mph17.7 kmh 30.00 in1015.9 mb 0.00 in0.0 mm 0.00 in0.0 mm 0.00 in0.0 mm
02:50 PM 51.9°F11.1°C 45.9°F7.7°C 80% 4.0 mph SSE6.4 kmh SSE 6.0 mph9.7 kmh 30.00 in1015.9 mb 0.00 in0.0 mm 0.00 in0.0 mm 0.00 in0.0 mm
03:05 PM 52.8°F11.6°C 45.8°F7.7°C 77% 6.0 mph ESE9.7 kmh ESE 8.0 mph12.9 kmh 30.00 in1015.9 mb 0.00 in0.0 mm 0.00 in0.0 mm 0.00 in0.0 mm
03:10 PM 52.9°F11.6°C 45.6°F7.6°C 76% 6.0 mph SSW9.7 kmh SSW 8.0 mph12.9 kmh 30.00 in1015.9 mb 0.00 in0.0 mm 0.00 in0.0 mm 0.00 in0.0 mm
03:25 PM 52.7°F11.5°C 44.7°F7.1°C 74% 2.0 mph SSW3.2 kmh SSW 7.0 mph11.3 kmh 30.00 in1015.9 mb 0.00 in0.0 mm 0.00 in0.0 mm 0.00 in0.0 mm
03:29 PM 52.7°F11.5°C 45.0°F7.2°C 75% 3.0 mph SE4.8 kmh SE 7.0 mph11.3 kmh 30.00 in1015.9 mb 0.00 in0.0 mm 0.00 in0.0 mm 0.00 in0.0 mm
03:45 PM 52.7°F11.5°C 44.7°F7.1°C 74% 3.0 mph S4.8 kmh S 8.0 mph12.9 kmh 30.00 in1015.9 mb 0.00 in0.0 mm 0.00 in0.0 mm 0.00 in0.0 mm
03:50 PM 52.6°F11.4°C 44.9°F7.2°C 75% 7.0 mph SE11.3 kmh SE 8.0 mph12.9 kmh 29.99 in1015.6 mb 0.00 in0.0 mm 0.00 in0.0 mm 0.00 in0.0 mm
04:05 PM 52.4°F11.3°C 44.0°F6.7°C 73% 4.0 mph SSE6.4 kmh SSE 9.0 mph14.5 kmh 30.00 in1015.9 mb 0.00 in0.0 mm 0.00 in0.0 mm 0.00 in0.0 mm
04:10 PM 52.2°F11.2°C 44.2°F6.8°C 74% 5.0 mph SE8.0 kmh SE 9.0 mph14.5 kmh 30.00 in1015.9 mb 0.00 in0.0 mm 0.00 in0.0 mm 0.00 in0.0 mm
04:25 PM 52.2°F11.2°C 44.9°F7.2°C 76% 3.0 mph SSE4.8 kmh SSE 6.0 mph9.7 kmh 29.99 in1015.6 mb 0.00 in0.0 mm 0.00 in0.0 mm 0.00 in0.0 mm
04:30 PM 52.4°F11.3°C 45.1°F7.3°C 76% 6.0 mph SSW9.7 kmh SSW 9.0 mph14.5 kmh 29.99 in1015.6 mb 0.00 in0.0 mm 0.00 in0.0 mm 0.00 in0.0 mm
04:45 PM 52.6°F11.4°C 45.3°F7.4°C 76% 4.0 mph SW6.4 kmh SW 6.0 mph9.7 kmh 30.00 in1015.9 mb 0.00 in0.0 mm 0.00 in0.0 mm 0.00 in0.0 mm
04:50 PM 52.4°F11.3°C 45.1°F7.3°C 76% 1.0 mph SSE1.6 kmh SSE 6.0 mph9.7 kmh 29.99 in1015.6 mb 0.00 in0.0 mm 0.00 in0.0 mm 0.00 in0.0 mm
05:05 PM 51.9°F11.1°C 45.6°F7.6°C 79% 2.0 mph ENE3.2 kmh ENE 3.0 mph4.8 kmh 30.00 in1015.9 mb 0.00 in0.0 mm 0.00 in0.0 mm 0.00 in0.0 mm
05:10 PM 50.5°F10.3°C 44.6°F7.0°C 80% 1.0 mph ENE1.6 kmh ENE 4.0 mph6.4 kmh 30.00 in1015.9 mb 0.00 in0.0 mm 0.00 in0.0 mm 0.00 in0.0 mm
05:25 PM 48.6°F9.2°C 44.0°F6.7°C 84% Calm Calm 6.0 mph9.7 kmh 30.00 in1015.9 mb 0.00 in0.0 mm 0.00 in0.0 mm 0.00 in0.0 mm
05:30 PM 48.3°F9.1°C 44.0°F6.7°C 85% Calm Calm 6.0 mph9.7 kmh 30.00 in1015.9 mb 0.00 in0.0 mm 0.00 in0.0 mm 0.00 in0.0 mm
05:45 PM 47.5°F8.6°C 43.8°F6.6°C 87% Calm Calm 4.0 mph6.4 kmh 30.00 in1015.9 mb 0.00 in0.0 mm 0.00 in0.0 mm 0.00 in0.0 mm
05:50 PM 47.4°F8.6°C 43.7°F6.5°C 87% 1.0 mph NE1.6 kmh NE 4.0 mph6.4 kmh 30.00 in1015.9 mb 0.00 in0.0 mm 0.00 in0.0 mm 0.00 in0.0 mm
06:05 PM 47.2°F8.4°C 44.1°F6.7°C 89% Calm Calm -- 30.00 in1015.9 mb 0.00 in0.0 mm 0.00 in0.0 mm 0.00 in0.0 mm
06:10 PM 47.0°F8.3°C 43.9°F6.6°C 89% 1.0 mph N1.6 kmh N 1.0 mph1.6 kmh 29.99 in1015.6 mb 0.00 in0.0 mm 0.00 in0.0 mm 0.00 in0.0 mm
06:24 PM 46.9°F8.3°C 44.4°F6.9°C 91% 1.0 mph N1.6 kmh N 3.0 mph4.8 kmh 29.99 in1015.6 mb 0.00 in0.0 mm 0.00 in0.0 mm 0.00 in0.0 mm
06:30 PM 46.8°F8.2°C 44.3°F6.8°C 91% Calm Calm 5.0 mph8.0 kmh 29.99 in1015.6 mb 0.00 in0.0 mm 0.00 in0.0 mm 0.00 in0.0 mm
06:45 PM 46.4°F8.0°C 44.2°F6.8°C 92% Calm Calm 2.0 mph3.2 kmh 29.99 in1015.6 mb 0.01 in0.3 mm 0.04 in1.0 mm 0.01 in0.3 mm
06:49 PM 46.3°F7.9°C 44.1°F6.7°C 92% Calm Calm 2.0 mph3.2 kmh 29.99 in1015.6 mb 0.02 in0.5 mm 0.15 in3.8 mm 0.02 in0.5 mm
07:05 PM 46.2°F7.9°C 44.3°F6.8°C 93% Calm Calm 4.0 mph6.4 kmh 29.99 in1015.6 mb 0.04 in1.0 mm 0.03 in0.8 mm 0.04 in1.0 mm
07:09 PM 46.2°F7.9°C 44.3°F6.8°C 93% Calm Calm 4.0 mph6.4 kmh 29.99 in1015.6 mb 0.05 in1.3 mm 0.15 in3.8 mm 0.05 in1.3 mm
07:25 PM 45.9°F7.7°C 44.3°F6.8°C 94% Calm Calm 3.0 mph4.8 kmh 29.99 in1015.6 mb 0.05 in1.3 mm 0.00 in0.0 mm 0.05 in1.3 mm
07:29 PM 45.8°F7.7°C 44.2°F6.8°C 94% Calm Calm 3.0 mph4.8 kmh 29.99 in1015.6 mb 0.05 in1.3 mm 0.00 in0.0 mm 0.05 in1.3 mm
07:45 PM 45.7°F7.6°C 44.1°F6.7°C 94% Calm Calm -- 29.99 in1015.6 mb 0.05 in1.3 mm 0.00 in0.0 mm 0.05 in1.3 mm
07:50 PM 45.6°F7.6°C 44.0°F6.7°C 94% Calm Calm -- 29.99 in1015.6 mb 0.03 in0.8 mm 0.00 in0.0 mm 0.05 in1.3 mm
08:05 PM 45.4°F7.4°C 43.8°F6.6°C 94% Calm Calm -- 29.99 in1015.6 mb 0.01 in0.3 mm 0.00 in0.0 mm 0.05 in1.3 mm
08:10 PM 45.4°F7.4°C 43.8°F6.6°C 94% Calm Calm -- 29.99 in1015.6 mb 0.01 in0.3 mm 0.00 in0.0 mm 0.05 in1.3 mm
08:25 PM 45.2°F7.3°C 43.6°F6.4°C 94% Calm Calm -- 30.00 in1015.9 mb 0.00 in0.0 mm 0.00 in0.0 mm 0.05 in1.3 mm
08:29 PM 45.2°F7.3°C 43.6°F6.4°C 94% Calm Calm -- 30.00 in1015.9 mb 0.00 in0.0 mm 0.00 in0.0 mm 0.05 in1.3 mm
08:45 PM 45.2°F7.3°C 43.9°F6.6°C 95% 2.0 mph E3.2 kmh E 2.0 mph3.2 kmh 30.00 in1015.9 mb 0.01 in0.3 mm 0.04 in1.0 mm 0.06 in1.5 mm
08:49 PM 45.3°F7.4°C 44.0°F6.7°C 95% Calm Calm 2.0 mph3.2 kmh 30.00 in1015.9 mb 0.01 in0.3 mm 0.00 in0.0 mm 0.06 in1.5 mm
09:05 PM 45.5°F7.5°C 44.2°F6.8°C 95% Calm Calm 3.0 mph4.8 kmh 30.00 in1015.9 mb 0.02 in0.5 mm 0.01 in0.3 mm 0.07 in1.8 mm
09:10 PM 45.4°F7.4°C 44.1°F6.7°C 95% Calm Calm 3.0 mph4.8 kmh 30.00 in1015.9 mb 0.02 in0.5 mm 0.00 in0.0 mm 0.07 in1.8 mm
09:25 PM 44.9°F7.2°C 43.3°F6.3°C 94% Calm Calm -- 29.99 in1015.6 mb 0.02 in0.5 mm 0.00 in0.0 mm 0.07 in1.8 mm
09:30 PM 44.9°F7.2°C 43.3°F6.3°C 94% Calm Calm -- 29.99 in1015.6 mb 0.02 in0.5 mm 0.00 in0.0 mm 0.07 in1.8 mm
09:45 PM 44.6°F7.0°C 43.0°F6.1°C 94% Calm Calm -- 30.00 in1015.9 mb 0.01 in0.3 mm 0.00 in0.0 mm 0.07 in1.8 mm
09:50 PM 44.6°F7.0°C 43.3°F6.3°C 95% Calm Calm -- 30.00 in1015.9 mb 0.01 in0.3 mm 0.00 in0.0 mm 0.07 in1.8 mm
10:04 PM 44.3°F6.8°C 43.0°F6.1°C 95% Calm Calm -- 29.99 in1015.6 mb 0.01 in0.3 mm 0.00 in0.0 mm 0.07 in1.8 mm
10:10 PM 44.3°F6.8°C 43.0°F6.1°C 95% Calm Calm -- 30.00 in1015.9 mb 0.01 in0.3 mm 0.00 in0.0 mm 0.07 in1.8 mm
10:25 PM 44.3°F6.8°C 43.0°F6.1°C 95% Calm Calm -- 30.00 in1015.9 mb 0.00 in0.0 mm 0.00 in0.0 mm 0.07 in1.8 mm
10:30 PM 44.2°F6.8°C 42.9°F6.1°C 95% Calm Calm -- 30.00 in1015.9 mb 0.00 in0.0 mm 0.00 in0.0 mm 0.07 in1.8 mm
10:45 PM 44.1°F6.7°C 42.8°F6.0°C 95% Calm Calm -- 30.00 in1015.9 mb 0.00 in0.0 mm 0.00 in0.0 mm 0.07 in1.8 mm
10:50 PM 44.1°F6.7°C 42.8°F6.0°C 95% Calm Calm -- 30.00 in1015.9 mb 0.00 in0.0 mm 0.00 in0.0 mm 0.07 in1.8 mm
11:05 PM 44.1°F6.7°C 42.8°F6.0°C 95% Calm Calm -- 30.00 in1015.9 mb 0.00 in0.0 mm 0.00 in0.0 mm 0.07 in1.8 mm
11:10 PM 44.1°F6.7°C 42.8°F6.0°C 95% Calm Calm -- 30.00 in1015.9 mb 0.00 in0.0 mm 0.00 in0.0 mm 0.07 in1.8 mm
11:25 PM 44.3°F6.8°C 43.2°F6.2°C 96% Calm Calm -- 30.00 in1015.9 mb 0.00 in0.0 mm 0.00 in0.0 mm 0.07 in1.8 mm
11:29 PM 44.3°F6.8°C 43.2°F6.2°C 96% Calm Calm 1.0 mph1.6 kmh 30.00 in1015.9 mb 0.00 in0.0 mm 0.00 in0.0 mm 0.07 in1.8 mm
11:44 PM 44.3°F6.8°C 43.2°F6.2°C 96% Calm Calm -- 30.00 in1015.9 mb 0.00 in0.0 mm 0.00 in0.0 mm 0.07 in1.8 mm
11:50 PM 44.3°F6.8°C 43.2°F6.2°C 96% Calm Calm -- 30.00 in1015.9 mb 0.01 in0.3 mm 0.10 in2.5 mm 0.08 in2.0 mm